createdAt,value
2018-06-16T00:02:15.850Z,9.65
2018-06-16T00:04:44.524Z,9.60
2018-06-16T00:07:13.258Z,8.90
2018-06-16T00:09:41.978Z,9.55
2018-06-16T00:12:10.676Z,9.10
2018-06-16T00:14:39.389Z,9.25
2018-06-16T00:17:08.176Z,10.05
2018-06-16T00:19:47.872Z,9.37
2018-06-16T00:22:16.593Z,10.17
2018-06-16T00:24:45.344Z,10.38
2018-06-16T00:27:14.050Z,9.90
2018-06-16T00:29:42.741Z,9.20
2018-06-16T00:32:11.476Z,9.85
2018-06-16T00:34:40.244Z,9.23
2018-06-16T00:37:08.931Z,9.37
2018-06-16T00:39:37.273Z,9.37
2018-06-16T00:42:05.997Z,9.13
2018-06-16T00:44:34.728Z,10.87
2018-06-16T00:47:03.375Z,10.67
2018-06-16T00:49:32.182Z,9.83
2018-06-16T00:52:01.524Z,9.93
2018-06-16T00:54:30.212Z,8.97
2018-06-16T00:57:09.945Z,9.40
2018-06-16T00:59:38.710Z,9.83
2018-06-16T01:02:07.497Z,9.93
2018-06-16T01:04:36.206Z,10.90
2018-06-16T01:07:05.429Z,11.23
2018-06-16T01:09:34.140Z,10.73
2018-06-16T01:12:02.822Z,9.73
2018-06-16T01:14:31.613Z,9.67
2018-06-16T01:17:00.318Z,9.13
2018-06-16T01:19:29.041Z,10.37
2018-06-16T01:21:57.762Z,10.60
2018-06-16T01:24:26.389Z,10.03
2018-06-16T01:26:55.132Z,10.07
2018-06-16T01:29:23.837Z,9.97
2018-06-16T01:31:52.580Z,9.17
2018-06-16T01:34:21.282Z,9.37
2018-06-16T01:36:50.020Z,9.90
2018-06-16T01:39:18.872Z,10.13
2018-06-16T01:41:47.619Z,10.40
2018-06-16T01:44:16.415Z,10.60
2018-06-16T01:46:45.131Z,11.33
2018-06-16T01:49:13.836Z,11.17
2018-06-16T01:51:42.210Z,10.53
2018-06-16T01:54:10.925Z,10.70
2018-06-16T01:56:39.241Z,9.40
2018-06-16T01:59:07.943Z,10.13
2018-06-16T02:01:36.729Z,11.57
2018-06-16T02:04:05.554Z,12.47
2018-06-16T02:06:34.271Z,10.40
2018-06-16T02:09:03.553Z,10.57
2018-06-16T02:11:32.379Z,10.03
2018-06-16T02:14:01.019Z,9.70
2018-06-16T02:16:29.761Z,10.60
2018-06-16T02:18:58.487Z,8.97
2018-06-16T02:21:27.196Z,10.27
2018-06-16T02:23:55.867Z,10.20
2018-06-16T02:26:24.595Z,9.60
2018-06-16T02:28:53.449Z,10.17
2018-06-16T02:31:22.154Z,8.63
2018-06-16T02:33:50.903Z,10.17
2018-06-16T02:36:19.690Z,9.93
2018-06-16T02:38:48.496Z,10.10
2018-06-16T02:41:17.234Z,8.77
2018-06-16T02:43:45.907Z,9.33
2018-06-16T02:46:14.748Z,9.43
2018-06-16T02:48:43.526Z,8.77
2018-06-16T02:51:12.428Z,9.63
2018-06-16T02:53:41.218Z,8.87
2018-06-16T02:56:09.953Z,8.67
2018-06-16T02:58:38.722Z,9.00
2018-06-16T03:01:07.589Z,9.03
2018-06-16T03:03:36.344Z,10.43
2018-06-16T03:06:05.052Z,8.33
2018-06-16T03:08:33.809Z,8.37
2018-06-16T03:11:02.537Z,8.60
2018-06-16T03:13:31.283Z,7.50
2018-06-16T03:16:00.020Z,8.47
2018-06-16T03:18:28.774Z,9.20
2018-06-16T03:20:57.485Z,10.27
2018-06-16T03:23:26.433Z,7.90
2018-06-16T03:25:55.124Z,9.50
2018-06-16T03:28:23.874Z,10.27
2018-06-16T03:30:52.587Z,9.57
2018-06-16T03:33:21.296Z,10.00
2018-06-16T03:35:50.083Z,7.77
2018-06-16T03:38:18.872Z,7.60
2018-06-16T03:40:47.737Z,8.63
2018-06-16T03:43:16.396Z,10.73
2018-06-16T03:45:45.084Z,9.67
2018-06-16T03:48:13.829Z,8.83
2018-06-16T03:50:42.553Z,8.97
2018-06-16T03:53:11.396Z,9.87
2018-06-16T03:55:40.155Z,8.17
2018-06-16T03:58:08.912Z,9.27
2018-06-16T04:00:37.607Z,8.57
2018-06-16T04:03:06.564Z,8.23
2018-06-16T04:05:35.241Z,9.30
2018-06-16T04:08:04.005Z,8.70
2018-06-16T04:10:32.714Z,7.60
2018-06-16T04:13:01.440Z,7.93
2018-06-16T04:15:30.225Z,8.20
2018-06-16T04:17:58.927Z,7.87
2018-06-16T04:20:27.255Z,8.10
2018-06-16T04:22:55.963Z,7.93
2018-06-16T04:25:24.675Z,8.07
2018-06-16T04:27:53.439Z,7.33
2018-06-16T04:30:22.216Z,8.17
2018-06-16T04:32:50.880Z,7.00
2018-06-16T04:35:19.199Z,8.07
2018-06-16T04:37:47.892Z,7.57
2018-06-16T04:40:16.231Z,8.33
2018-06-16T04:42:44.936Z,9.07
2018-06-16T04:45:13.590Z,7.13
2018-06-16T04:47:42.366Z,7.25
2018-06-16T04:50:11.112Z,7.67
2018-06-16T04:52:39.854Z,7.63
2018-06-16T04:55:08.559Z,7.20
2018-06-16T04:57:37.314Z,7.43
2018-06-16T05:00:06.084Z,8.10
2018-06-16T05:02:34.781Z,8.10
2018-06-16T05:05:03.539Z,8.87
2018-06-16T05:07:32.218Z,8.63
2018-06-16T05:10:00.921Z,8.35
2018-06-16T05:12:29.565Z,7.37
2018-06-16T05:14:58.289Z,9.03
2018-06-16T05:17:26.994Z,8.03
2018-06-16T05:19:55.653Z,7.90
2018-06-16T05:22:24.373Z,7.33
2018-06-16T05:24:53.079Z,7.10
2018-06-16T05:27:21.766Z,6.90
2018-06-16T05:29:50.438Z,7.70
2018-06-16T05:32:19.137Z,8.15
2018-06-16T05:34:47.899Z,6.70
2018-06-16T05:37:16.599Z,7.10
2018-06-16T05:39:45.397Z,6.85
2018-06-16T05:42:14.108Z,6.78
2018-06-16T05:44:42.449Z,8.15
2018-06-16T05:47:11.185Z,6.33
2018-06-16T05:49:39.982Z,7.37
2018-06-16T05:52:09.281Z,6.17
2018-06-16T05:54:37.992Z,6.10
2018-06-16T05:57:06.331Z,8.55
2018-06-16T05:59:35.064Z,7.37
2018-06-16T06:02:03.985Z,6.03
2018-06-16T06:04:32.697Z,7.05
2018-06-16T06:07:01.442Z,7.45
2018-06-16T06:09:30.128Z,6.80
2018-06-16T06:11:58.848Z,7.03
2018-06-16T06:14:27.564Z,6.72
2018-06-16T06:16:56.270Z,6.58
2018-06-16T06:19:24.973Z,8.58
2018-06-16T06:21:53.693Z,6.70
2018-06-16T06:24:22.437Z,5.60
2018-06-16T06:26:51.118Z,6.55
2018-06-16T06:29:19.852Z,5.95
2018-06-16T06:31:48.765Z,6.55
2018-06-16T06:34:17.495Z,7.15
2018-06-16T06:36:46.172Z,6.97
2018-06-16T06:39:14.967Z,5.60
2018-06-16T06:41:43.633Z,6.37
2018-06-16T06:44:12.300Z,9.83
2018-06-16T06:46:40.985Z,7.80
2018-06-16T06:49:09.646Z,7.30
2018-06-16T06:51:38.385Z,6.58
2018-06-16T06:54:07.089Z,5.95
2018-06-16T06:56:35.861Z,5.97
2018-06-16T06:59:04.568Z,5.67
2018-06-16T07:01:33.300Z,6.00
2018-06-16T07:04:02.048Z,5.95
2018-06-16T07:06:30.776Z,8.15
2018-06-16T07:09:00.476Z,6.22
2018-06-16T07:11:29.415Z,6.00
2018-06-16T07:13:58.090Z,6.30
2018-06-16T07:16:26.789Z,7.40
2018-06-16T07:18:55.500Z,7.78
2018-06-16T07:21:24.200Z,6.17
2018-06-16T07:23:52.893Z,7.00
2018-06-16T07:26:21.180Z,7.20
2018-06-16T07:28:49.908Z,6.00
2018-06-16T07:31:18.600Z,7.28
2018-06-16T07:33:47.329Z,5.90
2018-06-16T07:36:16.102Z,6.00
2018-06-16T07:38:44.767Z,5.40
2018-06-16T07:41:13.468Z,6.20
2018-06-16T07:43:42.112Z,7.65
2018-06-16T07:46:10.825Z,9.58
2018-06-16T07:48:39.519Z,7.20
2018-06-16T07:51:08.242Z,7.05
2018-06-16T07:53:36.961Z,8.13
2018-06-16T07:56:05.672Z,6.75
2018-06-16T07:58:34.365Z,6.08
2018-06-16T08:01:03.048Z,6.58
2018-06-16T08:03:32.293Z,6.55
2018-06-16T08:06:01.622Z,6.12
2018-06-16T08:08:30.289Z,5.25
2018-06-16T08:10:58.966Z,7.58
2018-06-16T08:13:27.741Z,6.20
2018-06-16T08:15:56.485Z,10.90
2018-06-16T08:18:25.205Z,8.95
2018-06-16T08:20:54.030Z,6.42
2018-06-16T08:23:22.719Z,9.88
2018-06-16T08:25:51.421Z,8.43
2018-06-16T08:28:20.345Z,7.55
2018-06-16T08:30:49.003Z,7.65
2018-06-16T08:33:17.728Z,8.15
2018-06-16T08:35:46.421Z,8.45
2018-06-16T08:38:15.452Z,12.15
2018-06-16T08:40:44.139Z,6.45
2018-06-16T08:43:12.927Z,7.40
2018-06-16T08:45:41.629Z,10.05
2018-06-16T08:48:10.324Z,6.62
2018-06-16T08:50:38.983Z,10.30
2018-06-16T08:53:07.774Z,7.47
2018-06-16T08:55:36.652Z,6.78
2018-06-16T08:58:05.545Z,6.95
2018-06-16T09:00:35.139Z,10.85
2018-06-16T09:03:03.473Z,7.97
2018-06-16T09:05:32.182Z,7.33
2018-06-16T09:08:00.820Z,8.63
2018-06-16T09:10:29.503Z,7.72
2018-06-16T09:12:58.173Z,7.97
2018-06-16T09:15:26.778Z,7.58
2018-06-16T09:17:55.601Z,6.70
2018-06-16T09:20:24.362Z,8.35
2018-06-16T09:22:52.814Z,6.12
2018-06-16T09:25:21.525Z,5.70
2018-06-16T09:27:50.285Z,9.90
2018-06-16T09:30:18.629Z,6.90
2018-06-16T09:32:47.399Z,6.28
2018-06-16T09:35:16.154Z,7.08
2018-06-16T09:37:44.811Z,6.37
2018-06-16T09:40:13.529Z,5.47
2018-06-16T09:42:42.492Z,9.08
2018-06-16T09:45:11.166Z,8.55
2018-06-16T09:47:39.849Z,6.53
2018-06-16T09:50:08.540Z,8.90
2018-06-16T09:52:37.239Z,7.85
2018-06-16T09:55:06.164Z,8.95
2018-06-16T09:57:34.903Z,8.68
2018-06-16T10:00:03.716Z,6.20
2018-06-16T10:02:32.404Z,7.03
2018-06-16T10:05:01.062Z,7.35
2018-06-16T10:07:29.819Z,8.63
2018-06-16T10:09:59.704Z,6.85
2018-06-16T10:12:27.992Z,6.80
2018-06-16T10:14:56.796Z,10.80
2018-06-16T10:17:25.586Z,9.48
2018-06-16T10:19:54.334Z,8.85
2018-06-16T10:22:23.044Z,6.67
2018-06-16T10:24:51.832Z,7.80
2018-06-16T10:27:22.460Z,8.70
2018-06-16T10:29:51.201Z,8.45
2018-06-16T10:32:19.802Z,8.85
2018-06-16T10:34:49.053Z,7.17
2018-06-16T10:37:17.781Z,6.80
2018-06-16T10:39:46.455Z,6.25
2018-06-16T10:42:15.188Z,11.63
2018-06-16T10:44:43.930Z,5.90
2018-06-16T10:47:12.722Z,9.70
2018-06-16T10:49:41.515Z,10.10
2018-06-16T10:52:10.582Z,5.70
2018-06-16T10:54:39.470Z,7.40
2018-06-16T10:57:09.209Z,4.95
2018-06-16T10:59:37.889Z,6.03
2018-06-16T11:02:06.765Z,8.70
2018-06-16T11:04:35.483Z,6.87
2018-06-16T11:07:04.297Z,5.42
2018-06-16T11:09:33.099Z,6.80
2018-06-16T11:12:02.134Z,5.30
2018-06-16T11:14:30.885Z,4.37
2018-06-16T11:16:59.600Z,4.08
2018-06-16T11:19:28.295Z,4.85
2018-06-16T11:21:57.003Z,4.55
2018-06-16T11:24:25.680Z,4.80
2018-06-16T11:26:54.417Z,7.25
2018-06-16T11:29:24.144Z,4.83
2018-06-16T11:31:52.873Z,5.78
2018-06-16T11:34:21.589Z,5.78
2018-06-16T11:36:50.303Z,5.97
2018-06-16T11:39:19.067Z,5.72
2018-06-16T11:41:47.850Z,4.60
2018-06-16T11:44:16.196Z,4.12
2018-06-16T11:46:44.919Z,6.70
2018-06-16T11:49:13.636Z,5.55
2018-06-16T11:51:42.445Z,6.42
2018-06-16T11:54:11.117Z,5.80
2018-06-16T11:56:39.868Z,6.60
2018-06-16T11:59:08.645Z,4.85
2018-06-16T12:01:37.341Z,6.28
2018-06-16T12:04:06.098Z,3.85
2018-06-16T12:06:34.816Z,9.13
2018-06-16T12:09:03.900Z,5.33
2018-06-16T12:11:32.592Z,4.83
2018-06-16T12:14:01.259Z,4.42
2018-06-16T12:16:29.893Z,8.48
2018-06-16T12:18:58.528Z,4.62
2018-06-16T12:21:27.229Z,4.65
2018-06-16T12:23:55.896Z,3.95
2018-06-16T12:26:24.644Z,4.62
2018-06-16T12:28:53.331Z,7.62
2018-06-16T12:31:22.036Z,7.00
2018-06-16T12:33:51.278Z,5.17
2018-06-16T12:36:20.058Z,3.15
2018-06-16T12:38:48.833Z,4.25
2018-06-16T12:41:17.539Z,7.12
2018-06-16T12:43:46.260Z,5.08
2018-06-16T12:46:14.894Z,4.28
2018-06-16T12:48:43.583Z,4.22
2018-06-16T12:51:12.302Z,7.72
2018-06-16T12:53:41.189Z,5.45
2018-06-16T12:56:09.824Z,3.90
2018-06-16T12:58:38.528Z,4.92
2018-06-16T13:01:07.276Z,3.85
2018-06-16T13:03:35.960Z,4.22
2018-06-16T13:06:04.675Z,4.47
2018-06-16T13:08:32.963Z,9.65
2018-06-16T13:11:01.602Z,12.47
2018-06-16T13:13:30.358Z,5.85
2018-06-16T13:15:59.049Z,6.42
2018-06-16T13:18:28.369Z,6.37
2018-06-16T13:20:57.169Z,3.98
2018-06-16T13:23:25.501Z,4.87
2018-06-16T13:25:54.249Z,6.28
2018-06-16T13:28:22.898Z,7.72
2018-06-16T13:30:51.585Z,8.95
2018-06-16T13:33:20.364Z,5.55
2018-06-16T13:35:48.673Z,7.40
2018-06-16T13:38:17.984Z,6.70
2018-06-16T13:40:46.666Z,6.08
2018-06-16T13:43:15.353Z,9.03
2018-06-16T13:45:44.041Z,7.42
2018-06-16T13:48:12.776Z,4.92
2018-06-16T13:50:41.673Z,8.55
2018-06-16T13:53:11.495Z,9.75
2018-06-16T13:55:40.363Z,6.03
2018-06-16T13:58:09.078Z,4.58
2018-06-16T14:00:37.764Z,4.80
2018-06-16T14:03:06.568Z,5.97
2018-06-16T14:05:35.317Z,5.25
2018-06-16T14:08:04.069Z,5.87
2018-06-16T14:10:33.012Z,7.10
2018-06-16T14:13:01.724Z,5.95
2018-06-16T14:15:30.484Z,5.53
2018-06-16T14:17:59.232Z,4.97
2018-06-16T14:20:27.906Z,6.33
2018-06-16T14:22:56.730Z,6.30
2018-06-16T14:25:25.471Z,4.92
2018-06-16T14:27:54.151Z,5.90
2018-06-16T14:30:22.985Z,4.28
2018-06-16T14:32:51.626Z,8.40
2018-06-16T14:35:20.341Z,4.12
2018-06-16T14:37:49.036Z,4.62
2018-06-16T14:40:17.744Z,8.88
2018-06-16T14:42:46.489Z,7.08
2018-06-16T14:45:15.207Z,5.85
2018-06-16T14:47:43.901Z,8.28
2018-06-16T14:50:12.631Z,7.80
2018-06-16T14:52:41.397Z,10.05
2018-06-16T14:55:10.137Z,6.67
2018-06-16T14:57:38.855Z,9.83
2018-06-16T15:00:07.590Z,6.10
2018-06-16T15:02:36.353Z,8.83
2018-06-16T15:05:05.178Z,6.05
2018-06-16T15:07:33.789Z,7.37
2018-06-16T15:10:02.790Z,8.10
2018-06-16T15:12:31.537Z,5.60
2018-06-16T15:15:00.269Z,8.48
2018-06-16T15:17:28.955Z,10.23
2018-06-16T15:19:57.653Z,5.78
2018-06-16T15:22:26.123Z,5.58
2018-06-16T15:24:54.827Z,3.65
2018-06-16T15:27:23.536Z,5.83
2018-06-16T15:29:52.269Z,6.83
2018-06-16T15:32:21.053Z,7.25
2018-06-16T15:34:49.744Z,5.42
2018-06-16T15:37:18.494Z,6.22
2018-06-16T15:39:47.223Z,7.35
2018-06-16T15:42:15.963Z,5.58
2018-06-16T15:44:45.329Z,6.15
2018-06-16T15:47:14.036Z,7.45
2018-06-16T15:49:42.994Z,4.78
2018-06-16T15:52:11.473Z,5.65
2018-06-16T15:54:40.550Z,6.83
2018-06-16T15:57:09.894Z,6.65
2018-06-16T15:59:38.650Z,6.58
2018-06-16T16:02:07.395Z,3.55
2018-06-16T16:04:36.403Z,5.05
2018-06-16T16:07:05.171Z,6.08
2018-06-16T16:09:34.126Z,5.22
2018-06-16T16:12:03.163Z,4.30
2018-06-16T16:14:33.413Z,6.30
2018-06-16T16:17:02.181Z,5.25
2018-06-16T16:19:32.229Z,5.03
2018-06-16T16:22:01.024Z,4.78
2018-06-16T16:24:29.753Z,7.83
2018-06-16T16:26:58.475Z,4.33
2018-06-16T16:29:27.635Z,4.50
2018-06-16T16:31:57.167Z,8.43
2018-06-16T16:34:26.005Z,7.30
2018-06-16T16:36:59.542Z,7.25
2018-06-16T16:39:28.482Z,3.27
2018-06-16T16:41:57.270Z,5.00
2018-06-16T16:44:26.087Z,5.28
2018-06-16T16:46:54.780Z,6.15
2018-06-16T16:49:23.511Z,5.25
2018-06-16T16:51:52.327Z,6.42
2018-06-16T16:54:21.950Z,6.40
2018-06-16T16:56:52.830Z,6.20
2018-06-16T16:59:22.641Z,5.03
2018-06-16T17:01:51.516Z,5.78
2018-06-16T17:04:20.214Z,6.37
2018-06-16T17:06:53.666Z,6.58
2018-06-16T17:09:22.405Z,8.50
2018-06-16T17:11:51.219Z,3.85
2018-06-16T17:14:19.908Z,4.45
2018-06-16T17:16:48.735Z,6.35
2018-06-16T17:19:17.607Z,7.05
2018-06-16T17:21:46.376Z,4.35
2018-06-16T17:24:15.041Z,7.03
2018-06-16T17:26:43.840Z,5.05
2018-06-16T17:29:12.702Z,4.17
2018-06-16T17:31:41.472Z,7.60
2018-06-16T17:34:10.632Z,7.22
2018-06-16T17:36:39.525Z,6.05
2018-06-16T17:39:09.768Z,4.62
2018-06-16T17:41:38.604Z,5.08
2018-06-16T17:44:07.351Z,4.87
2018-06-16T17:46:36.102Z,5.17
2018-06-16T17:49:04.973Z,4.50
2018-06-16T17:51:33.786Z,5.00
2018-06-16T17:54:02.596Z,4.65
2018-06-16T17:56:31.351Z,9.58
2018-06-16T17:59:09.665Z,4.58
2018-06-16T18:01:38.584Z,3.30
2018-06-16T18:04:07.399Z,3.42
2018-06-16T18:06:36.295Z,4.58
2018-06-16T18:09:08.151Z,2.70
2018-06-16T18:11:36.951Z,3.17
2018-06-16T18:14:05.750Z,3.17
2018-06-16T18:16:34.585Z,3.20
2018-06-16T18:19:03.768Z,3.35
2018-06-16T18:21:32.791Z,4.50
2018-06-16T18:24:01.699Z,3.52
2018-06-16T18:26:30.552Z,4.78
2018-06-16T18:28:59.430Z,5.10
2018-06-16T18:31:28.639Z,4.00
2018-06-16T18:33:57.532Z,3.67
2018-06-16T18:36:26.081Z,3.87
2018-06-16T18:38:54.925Z,3.10
2018-06-16T18:41:23.897Z,3.55
2018-06-16T18:43:52.874Z,4.50
2018-06-16T18:46:21.755Z,3.05
2018-06-16T18:48:50.739Z,3.17
2018-06-16T18:51:19.772Z,3.12
2018-06-16T18:53:48.784Z,2.83
2018-06-16T18:56:17.711Z,4.65
2018-06-16T18:58:46.633Z,7.10
2018-06-16T19:01:15.454Z,5.55
2018-06-16T19:03:43.957Z,3.92
2018-06-16T19:06:13.906Z,4.78
2018-06-16T19:08:42.852Z,3.52
2018-06-16T19:11:11.476Z,3.98
2018-06-16T19:13:40.396Z,5.22
2018-06-16T19:16:09.409Z,3.67
2018-06-16T19:18:38.194Z,3.42
2018-06-16T19:21:07.290Z,4.15
2018-06-16T19:23:36.187Z,7.72
2018-06-16T19:26:05.116Z,5.33
2018-06-16T19:28:34.007Z,5.87
2018-06-16T19:31:02.853Z,3.58
2018-06-16T19:33:31.709Z,4.97
2018-06-16T19:36:00.951Z,3.77
2018-06-16T19:38:29.789Z,5.37
2018-06-16T19:40:58.540Z,4.37
2018-06-16T19:43:27.321Z,5.40
2018-06-16T19:45:56.088Z,4.20
2018-06-16T19:48:24.379Z,7.35
2018-06-16T19:50:53.013Z,9.03
2018-06-16T19:53:21.768Z,7.90
2018-06-16T19:55:51.216Z,8.87
2018-06-16T19:58:20.220Z,13.87
2018-06-16T20:00:48.941Z,9.93
2018-06-16T20:03:17.316Z,11.60
2018-06-16T20:05:46.125Z,14.87
2018-06-16T20:08:14.985Z,14.03
2018-06-16T20:10:58.291Z,15.80
2018-06-16T20:13:26.991Z,14.27
2018-06-16T20:15:55.732Z,20.87
2018-06-16T20:18:25.216Z,15.73
2018-06-16T20:20:53.989Z,19.17
2018-06-16T20:23:22.667Z,12.53
2018-06-16T20:25:51.372Z,14.03
2018-06-16T20:28:20.143Z,18.47
2018-06-16T20:30:48.988Z,15.20
2018-06-16T20:33:17.704Z,15.70
2018-06-16T20:35:46.527Z,16.10
2018-06-16T20:38:15.296Z,14.83
2018-06-16T20:40:44.565Z,14.43
2018-06-16T20:43:13.280Z,15.90
2018-06-16T20:45:41.975Z,15.27
2018-06-16T20:48:15.437Z,12.50
2018-06-16T20:50:44.292Z,12.90
2018-06-16T20:53:12.911Z,14.03
2018-06-16T20:55:41.943Z,15.43
2018-06-16T20:58:10.589Z,10.90
2018-06-16T21:00:39.364Z,14.30
2018-06-16T21:03:08.367Z,11.03
2018-06-16T21:05:36.789Z,7.27
2018-06-16T21:08:05.578Z,8.13
2018-06-16T21:10:37.698Z,8.07
2018-06-16T21:13:08.942Z,7.63
2018-06-16T21:18:24.058Z,7.20
2018-06-16T21:20:58.190Z,6.50
2018-06-16T21:23:26.864Z,6.37
2018-06-16T21:25:55.494Z,6.17
2018-06-16T21:28:24.244Z,5.57
2018-06-16T21:30:53.287Z,7.33
2018-06-16T21:33:22.689Z,7.30
2018-06-16T21:35:51.414Z,6.50
2018-06-16T21:38:24.072Z,8.60
2018-06-16T21:40:52.833Z,8.67
2018-06-16T21:43:25.125Z,8.93
2018-06-16T21:45:53.652Z,11.47
2018-06-16T21:48:22.475Z,8.10
2018-06-16T21:50:54.123Z,8.57
2018-06-16T21:53:26.731Z,9.07
2018-06-16T21:55:58.636Z,8.53
2018-06-16T21:58:31.945Z,8.57
2018-06-16T22:01:00.750Z,11.43
2018-06-16T22:03:29.451Z,7.33
2018-06-16T22:05:58.164Z,10.37
2018-06-16T22:08:32.401Z,9.43
2018-06-16T22:11:02.118Z,9.17
2018-06-16T22:13:31.205Z,8.47
2018-06-16T22:15:59.934Z,10.37
2018-06-16T22:18:28.856Z,8.20
2018-06-16T22:20:58.030Z,8.87
2018-06-16T22:23:26.745Z,6.97
2018-06-16T22:25:55.401Z,9.83
2018-06-16T22:28:24.144Z,7.60
2018-06-16T22:30:53.505Z,7.23
2018-06-16T22:33:22.229Z,6.37
2018-06-16T22:35:51.015Z,7.63
2018-06-16T22:38:19.722Z,7.27
2018-06-16T22:40:48.444Z,8.20
2018-06-16T22:43:17.160Z,9.73
2018-06-16T22:45:45.890Z,8.10
2018-06-16T22:48:14.513Z,6.43
2018-06-16T22:50:43.862Z,6.70
2018-06-16T22:53:12.604Z,11.57
2018-06-16T22:55:41.254Z,9.13
2018-06-16T22:58:10.168Z,8.00
2018-06-16T23:00:38.933Z,7.50
2018-06-16T23:03:07.624Z,8.47
2018-06-16T23:05:36.284Z,7.10
2018-06-16T23:08:04.619Z,8.13
2018-06-16T23:10:33.286Z,9.43
2018-06-16T23:13:01.969Z,9.40
2018-06-16T23:15:30.685Z,8.70
2018-06-16T23:18:09.087Z,7.87
2018-06-16T23:20:37.782Z,10.40
2018-06-16T23:23:06.630Z,8.47
2018-06-16T23:25:35.348Z,9.27
2018-06-16T23:28:04.086Z,13.87
2018-06-16T23:30:32.771Z,10.90
2018-06-16T23:33:01.474Z,8.73
2018-06-16T23:35:30.506Z,10.07
2018-06-16T23:37:59.323Z,18.50
2018-06-16T23:40:28.010Z,10.77
2018-06-16T23:42:56.733Z,8.43
2018-06-16T23:45:25.113Z,12.87
2018-06-16T23:47:54.099Z,15.80
2018-06-16T23:50:22.436Z,11.40
2018-06-16T23:52:51.139Z,8.90
2018-06-16T23:55:19.784Z,8.93
2018-06-16T23:57:48.486Z,10.80
